Accueil
METAR-TAF:

METAR-TAF

Aéroports :

Aéroport international de Cambridge

Cambridge, Angleterre

latitude: 52-12N, longitude: 000-11E, altitude: 15 m

Observation

Le bulletin a été fait il y a 5 heures et 45 minutes, à 16:50 UTC
Vent 7 kt de nord, variant entre nord/nord-ouest et nord-est
Température 9°C
Humidité 66%
Pression 1026 hPa
Visibilité 10 km ou plus
Nuages épars à une hauteur de 2300 ft

METAR: EGSC 221650Z 36007KT 330V040 9999 SCT023 09/03 Q1026

Heure: 23:35 (22:35 UTC)

Prévision

Le bulletin a été fait il y a 8 heures et 39 minutes, à 13:56 UTC
Prévision valable du 22 à 15 UTC au 22 à 17 UTC
Vent 6 kt de nord
Visibilité 10 km ou plus
Quelques nuages à une hauteur de 1500 ft
Nuages épars à une hauteur de 2000 ft
Temporairement
du 22 à 15 UTC au 22 à 17 UTC
Visibilité: 9000 m
pluie faible,

TAF: EGSC 221356Z 2215/2217 35006KT 9999 FEW015 SCT020 TEMPO 2215/2217 9000 -RA

Observations et prévisions météorologiques de plus de 4000 aéroports (messages METAR et TAF).

Les stations disponibles sont représentées par des disques jaunes et rouges sur la carte.

Passer la souris dessus pour voir le nom de la station.

Cliquer dessus pour voir les observations et prévisions météorologiques.

Pour changer de carte: cliquez sur les boutons verts avec une croix noire pour zoomer, sur le bouton vert avec un tiret pour effectuer un zoom arrière, ou sur les flèches vertes pour les cartes adjacentes.


METAR-TAF: